sensor_id;sensor_type;location;lat;lon;timestamp;P1;durP1;ratioP1;P2;durP2;ratioP2
49946;SDS011;35839;48.662;13.300;2024-03-08T05:00:48;33.83;;;18.33;;
49946;SDS011;35839;48.662;13.300;2024-03-08T05:03:13;35.13;;;17.53;;
49946;SDS011;35839;48.662;13.300;2024-03-08T05:05:39;29.40;;;16.83;;
49946;SDS011;35839;48.662;13.300;2024-03-08T05:08:04;35.93;;;18.77;;
49946;SDS011;35839;48.662;13.300;2024-03-08T05:10:30;33.30;;;16.60;;
49946;SDS011;35839;48.662;13.300;2024-03-08T05:12:55;48.93;;;25.57;;
49946;SDS011;35839;48.662;13.300;2024-03-08T05:15:21;33.33;;;19.63;;
49946;SDS011;35839;48.662;13.300;2024-03-08T05:17:46;36.00;;;21.13;;
49946;SDS011;35839;48.662;13.300;2024-03-08T05:20:12;41.70;;;19.80;;
49946;SDS011;35839;48.662;13.300;2024-03-08T05:22:38;40.17;;;25.00;;
49946;SDS011;35839;48.662;13.300;2024-03-08T05:25:04;42.10;;;23.83;;
49946;SDS011;35839;48.662;13.300;2024-03-08T05:27:30;42.70;;;20.80;;
49946;SDS011;35839;48.662;13.300;2024-03-08T05:29:55;38.50;;;20.53;;
49946;SDS011;35839;48.662;13.300;2024-03-08T05:32:20;31.80;;;16.60;;
49946;SDS011;35839;48.662;13.300;2024-03-08T05:34:46;34.00;;;18.97;;
49946;SDS011;35839;48.662;13.300;2024-03-08T05:37:11;33.63;;;18.10;;
49946;SDS011;35839;48.662;13.300;2024-03-08T05:39:37;29.43;;;16.37;;
49946;SDS011;35839;48.662;13.300;2024-03-08T05:42:02;32.73;;;19.23;;
49946;SDS011;35839;48.662;13.300;2024-03-08T05:44:28;32.17;;;17.30;;
49946;SDS011;35839;48.662;13.300;2024-03-08T05:46:53;31.90;;;18.00;;
49946;SDS011;35839;48.662;13.300;2024-03-08T05:49:19;38.90;;;22.00;;
49946;SDS011;35839;48.662;13.300;2024-03-08T05:51:44;33.00;;;19.07;;
49946;SDS011;35839;48.662;13.300;2024-03-08T05:54:10;34.50;;;18.83;;
49946;SDS011;35839;48.662;13.300;2024-03-08T05:56:37;37.60;;;20.77;;
49946;SDS011;35839;48.662;13.300;2024-03-08T05:59:03;45.40;;;23.43;;
49946;SDS011;35839;48.662;13.300;2024-03-08T06:01:29;38.83;;;20.83;;
49946;SDS011;35839;48.662;13.300;2024-03-08T06:03:56;42.10;;;21.47;;
49946;SDS011;35839;48.662;13.300;2024-03-08T06:06:25;41.57;;;21.03;;
49946;SDS011;35839;48.662;13.300;2024-03-08T06:08:51;37.03;;;20.23;;
49946;SDS011;35839;48.662;13.300;2024-03-08T06:11:17;40.20;;;19.77;;
49946;SDS011;35839;48.662;13.300;2024-03-08T06:13:44;36.43;;;18.63;;
49946;SDS011;35839;48.662;13.300;2024-03-08T06:16:10;37.97;;;21.03;;
49946;SDS011;35839;48.662;13.300;2024-03-08T06:18:35;48.00;;;24.67;;
49946;SDS011;35839;48.662;13.300;2024-03-08T06:21:04;46.27;;;25.30;;
49946;SDS011;35839;48.662;13.300;2024-03-08T06:23:34;46.00;;;24.10;;
49946;SDS011;35839;48.662;13.300;2024-03-08T06:26:04;42.77;;;23.60;;
49946;SDS011;35839;48.662;13.300;2024-03-08T06:28:30;44.87;;;24.33;;
49946;SDS011;35839;48.662;13.300;2024-03-08T06:30:57;35.23;;;21.03;;
49946;SDS011;35839;48.662;13.300;2024-03-08T06:33:23;35.80;;;20.13;;
49946;SDS011;35839;48.662;13.300;2024-03-08T06:35:49;33.80;;;19.37;;
49946;SDS011;35839;48.662;13.300;2024-03-08T06:38:14;36.53;;;20.77;;
49946;SDS011;35839;48.662;13.300;2024-03-08T06:40:42;35.60;;;20.17;;
49946;SDS011;35839;48.662;13.300;2024-03-08T06:43:07;36.00;;;18.10;;
49946;SDS011;35839;48.662;13.300;2024-03-08T06:45:32;33.57;;;18.03;;
49946;SDS011;35839;48.662;13.300;2024-03-08T06:47:58;29.57;;;17.37;;
49946;SDS011;35839;48.662;13.300;2024-03-08T06:50:23;32.97;;;18.47;;
49946;SDS011;35839;48.662;13.300;2024-03-08T06:52:49;36.77;;;20.03;;
49946;SDS011;35839;48.662;13.300;2024-03-08T06:55:18;36.00;;;20.13;;
49946;SDS011;35839;48.662;13.300;2024-03-08T06:57:44;39.33;;;21.57;;
49946;SDS011;35839;48.662;13.300;2024-03-08T07:00:10;38.93;;;21.07;;
49946;SDS011;35839;48.662;13.300;2024-03-08T07:02:42;46.70;;;25.53;;
49946;SDS011;35839;48.662;13.300;2024-03-08T07:05:07;42.17;;;25.23;;
49946;SDS011;35839;48.662;13.300;2024-03-08T07:07:35;45.27;;;23.73;;
49946;SDS011;35839;48.662;13.300;2024-03-08T07:10:01;49.90;;;23.67;;
49946;SDS011;35839;48.662;13.300;2024-03-08T07:12:26;40.07;;;23.50;;
49946;SDS011;35839;48.662;13.300;2024-03-08T07:14:52;46.80;;;23.20;;
49946;SDS011;35839;48.662;13.300;2024-03-08T07:17:18;45.20;;;24.17;;
49946;SDS011;35839;48.662;13.300;2024-03-08T07:19:43;40.37;;;23.53;;
49946;SDS011;35839;48.662;13.300;2024-03-08T07:22:09;42.33;;;22.27;;
49946;SDS011;35839;48.662;13.300;2024-03-08T07:24:35;47.50;;;23.53;;
49946;SDS011;35839;48.662;13.300;2024-03-08T07:27:19;44.50;;;24.00;;
49946;SDS011;35839;48.662;13.300;2024-03-08T07:29:44;41.60;;;24.23;;
49946;SDS011;35839;48.662;13.300;2024-03-08T07:32:10;36.67;;;22.60;;
49946;SDS011;35839;48.662;13.300;2024-03-08T07:34:48;39.13;;;21.90;;
49946;SDS011;35839;48.662;13.300;2024-03-08T07:37:15;39.43;;;22.87;;
49946;SDS011;35839;48.662;13.300;2024-03-08T07:39:41;42.23;;;22.63;;
49946;SDS011;35839;48.662;13.300;2024-03-08T07:42:06;46.90;;;24.37;;
49946;SDS011;35839;48.662;13.300;2024-03-08T07:44:32;35.47;;;21.77;;
49946;SDS011;35839;48.662;13.300;2024-03-08T07:46:58;41.13;;;23.17;;
49946;SDS011;35839;48.662;13.300;2024-03-08T07:49:24;39.60;;;22.50;;
49946;SDS011;35839;48.662;13.300;2024-03-08T07:51:49;40.27;;;23.20;;
49946;SDS011;35839;48.662;13.300;2024-03-08T07:54:15;47.57;;;24.13;;
49946;SDS011;35839;48.662;13.300;2024-03-08T07:56:40;36.70;;;22.80;;
49946;SDS011;35839;48.662;13.300;2024-03-08T07:59:07;40.87;;;22.13;;
49946;SDS011;35839;48.662;13.300;2024-03-08T08:01:32;41.40;;;22.60;;
49946;SDS011;35839;48.662;13.300;2024-03-08T08:03:58;38.23;;;22.43;;
49946;SDS011;35839;48.662;13.300;2024-03-08T08:06:24;36.13;;;20.63;;
49946;SDS011;35839;48.662;13.300;2024-03-08T08:08:50;31.57;;;19.07;;
49946;SDS011;35839;48.662;13.300;2024-03-08T08:11:15;32.03;;;18.43;;
49946;SDS011;35839;48.662;13.300;2024-03-08T08:13:41;33.93;;;19.03;;
49946;SDS011;35839;48.662;13.300;2024-03-08T08:16:08;27.73;;;18.33;;
49946;SDS011;35839;48.662;13.300;2024-03-08T08:18:33;30.23;;;18.73;;
49946;SDS011;35839;48.662;13.300;2024-03-08T08:21:01;29.87;;;16.97;;
49946;SDS011;35839;48.662;13.300;2024-03-08T08:23:27;31.57;;;17.10;;
49946;SDS011;35839;48.662;13.300;2024-03-08T08:25:52;27.80;;;16.63;;
49946;SDS011;35839;48.662;13.300;2024-03-08T08:28:18;26.23;;;17.40;;
49946;SDS011;35839;48.662;13.300;2024-03-08T08:30:44;27.07;;;15.10;;
49946;SDS011;35839;48.662;13.300;2024-03-08T08:33:09;22.10;;;15.43;;
49946;SDS011;35839;48.662;13.300;2024-03-08T08:35:35;26.30;;;15.43;;
49946;SDS011;35839;48.662;13.300;2024-03-08T08:38:02;22.33;;;15.40;;
49946;SDS011;35839;48.662;13.300;2024-03-08T08:40:28;23.27;;;14.80;;
49946;SDS011;35839;48.662;13.300;2024-03-08T08:42:55;24.00;;;14.70;;
49946;SDS011;35839;48.662;13.300;2024-03-08T08:45:22;19.20;;;12.83;;
49946;SDS011;35839;48.662;13.300;2024-03-08T08:47:48;19.17;;;12.70;;
49946;SDS011;35839;48.662;13.300;2024-03-08T08:50:14;21.47;;;12.70;;
49946;SDS011;35839;48.662;13.300;2024-03-08T08:52:41;21.23;;;12.93;;
49946;SDS011;35839;48.662;13.300;2024-03-08T08:55:09;16.30;;;11.57;;
49946;SDS011;35839;48.662;13.300;2024-03-08T09:00:04;18.37;;;11.37;;
49946;SDS011;35839;48.662;13.300;2024-03-08T09:02:32;19.43;;;11.13;;
49946;SDS011;35839;48.662;13.300;2024-03-08T09:04:57;16.70;;;11.97;;
49946;SDS011;35839;48.662;13.300;2024-03-08T09:07:23;17.80;;;11.77;;
49946;SDS011;35839;48.662;13.300;2024-03-08T09:09:49;17.17;;;10.67;;
49946;SDS011;35839;48.662;13.300;2024-03-08T09:12:14;16.43;;;10.73;;
49946;SDS011;35839;48.662;13.300;2024-03-08T09:14:40;17.13;;;10.63;;
49946;SDS011;35839;48.662;13.300;2024-03-08T09:17:06;18.03;;;11.47;;
49946;SDS011;35839;48.662;13.300;2024-03-08T09:19:33;16.93;;;10.63;;
49946;SDS011;35839;48.662;13.300;2024-03-08T09:21:59;18.87;;;10.63;;
49946;SDS011;35839;48.662;13.300;2024-03-08T09:24:24;12.87;;;9.17;;
49946;SDS011;35839;48.662;13.300;2024-03-08T09:26:50;16.77;;;9.63;;
49946;SDS011;35839;48.662;13.300;2024-03-08T09:29:17;12.73;;;9.83;;
49946;SDS011;35839;48.662;13.300;2024-03-08T09:31:42;13.30;;;8.93;;
49946;SDS011;35839;48.662;13.300;2024-03-08T09:34:08;13.87;;;9.37;;
49946;SDS011;35839;48.662;13.300;2024-03-08T09:36:33;12.53;;;9.03;;
49946;SDS011;35839;48.662;13.300;2024-03-08T09:38:59;12.87;;;9.03;;
49946;SDS011;35839;48.662;13.300;2024-03-08T09:41:25;17.57;;;10.20;;
49946;SDS011;35839;48.662;13.300;2024-03-08T09:43:51;17.17;;;10.37;;
49946;SDS011;35839;48.662;13.300;2024-03-08T09:46:17;13.63;;;9.23;;
49946;SDS011;35839;48.662;13.300;2024-03-08T09:48:44;15.37;;;9.83;;
49946;SDS011;35839;48.662;13.300;2024-03-08T09:51:11;16.70;;;9.43;;
49946;SDS011;35839;48.662;13.300;2024-03-08T09:53:40;15.40;;;10.50;;
49946;SDS011;35839;48.662;13.300;2024-03-08T09:56:07;15.03;;;10.17;;
49946;SDS011;35839;48.662;13.300;2024-03-08T09:58:33;15.83;;;9.80;;
49946;SDS011;35839;48.662;13.300;2024-03-08T10:00:58;15.50;;;10.53;;
49946;SDS011;35839;48.662;13.300;2024-03-08T10:03:27;18.40;;;11.57;;
49946;SDS011;35839;48.662;13.300;2024-03-08T10:05:56;16.53;;;9.90;;
49946;SDS011;35839;48.662;13.300;2024-03-08T10:08:25;13.43;;;10.23;;
49946;SDS011;35839;48.662;13.300;2024-03-08T10:10:52;14.90;;;10.23;;
49946;SDS011;35839;48.662;13.300;2024-03-08T10:13:17;16.90;;;10.83;;
49946;SDS011;35839;48.662;13.300;2024-03-08T10:15:44;14.43;;;10.67;;
49946;SDS011;35839;48.662;13.300;2024-03-08T10:18:10;16.00;;;10.43;;
49946;SDS011;35839;48.662;13.300;2024-03-08T10:20:35;14.80;;;10.47;;
49946;SDS011;35839;48.662;13.300;2024-03-08T10:23:02;17.73;;;11.60;;
49946;SDS011;35839;48.662;13.300;2024-03-08T10:25:31;15.47;;;10.93;;
49946;SDS011;35839;48.662;13.300;2024-03-08T10:27:58;15.90;;;10.77;;
49946;SDS011;35839;48.662;13.300;2024-03-08T10:30:23;17.00;;;11.33;;
49946;SDS011;35839;48.662;13.300;2024-03-08T10:32:48;17.23;;;10.93;;
49946;SDS011;35839;48.662;13.300;2024-03-08T10:35:14;15.60;;;10.80;;
49946;SDS011;35839;48.662;13.300;2024-03-08T10:37:45;16.67;;;10.47;;
49946;SDS011;35839;48.662;13.300;2024-03-08T10:40:16;15.90;;;11.53;;
49946;SDS011;35839;48.662;13.300;2024-03-08T10:42:53;16.80;;;10.40;;
49946;SDS011;35839;48.662;13.300;2024-03-08T10:50:40;19.63;;;12.30;;
49946;SDS011;35839;48.662;13.300;2024-03-08T10:53:07;17.03;;;9.97;;
49946;SDS011;35839;48.662;13.300;2024-03-08T10:55:36;14.93;;;10.60;;
49946;SDS011;35839;48.662;13.300;2024-03-08T10:58:03;15.97;;;10.20;;
49946;SDS011;35839;48.662;13.300;2024-03-08T11:00:29;14.80;;;9.60;;
49946;SDS011;35839;48.662;13.300;2024-03-08T11:02:55;16.30;;;10.23;;
49946;SDS011;35839;48.662;13.300;2024-03-08T11:08:17;13.73;;;9.47;;
49946;SDS011;35839;48.662;13.300;2024-03-08T11:10:46;11.23;;;8.10;;
49946;SDS011;35839;48.662;13.300;2024-03-08T11:16:06;13.23;;;7.77;;
49946;SDS011;35839;48.662;13.300;2024-03-08T11:18:34;10.37;;;7.77;;
49946;SDS011;35839;48.662;13.300;2024-03-08T11:21:04;11.10;;;7.50;;
49946;SDS011;35839;48.662;13.300;2024-03-08T11:23:37;10.63;;;7.73;;
49946;SDS011;35839;48.662;13.300;2024-03-08T11:26:02;16.00;;;9.33;;
49946;SDS011;35839;48.662;13.300;2024-03-08T11:28:32;15.23;;;9.47;;
49946;SDS011;35839;48.662;13.300;2024-03-08T11:33:26;9.00;;;6.83;;
49946;SDS011;35839;48.662;13.300;2024-03-08T11:36:12;10.10;;;7.00;;
49946;SDS011;35839;48.662;13.300;2024-03-08T11:38:41;10.97;;;7.13;;
49946;SDS011;35839;48.662;13.300;2024-03-08T11:41:10;11.43;;;7.22;;
49946;SDS011;35839;48.662;13.300;2024-03-08T11:43:39;13.95;;;8.90;;
49946;SDS011;35839;48.662;13.300;2024-03-08T11:46:10;10.95;;;7.22;;
49946;SDS011;35839;48.662;13.300;2024-03-08T11:48:39;11.13;;;7.43;;
49946;SDS011;35839;48.662;13.300;2024-03-08T11:51:08;12.60;;;8.73;;
49946;SDS011;35839;48.662;13.300;2024-03-08T11:53:37;9.63;;;7.60;;
49946;SDS011;35839;48.662;13.300;2024-03-08T11:56:07;12.53;;;8.53;;
49946;SDS011;35839;48.662;13.300;2024-03-08T11:58:37;11.90;;;7.87;;
49946;SDS011;35839;48.662;13.300;2024-03-08T12:01:12;11.83;;;8.07;;
49946;SDS011;35839;48.662;13.300;2024-03-08T12:03:41;11.33;;;8.27;;
49946;SDS011;35839;48.662;13.300;2024-03-08T12:06:09;10.40;;;7.87;;
49946;SDS011;35839;48.662;13.300;2024-03-08T12:08:35;10.00;;;7.53;;
49946;SDS011;35839;48.662;13.300;2024-03-08T12:11:03;8.53;;;6.83;;
49946;SDS011;35839;48.662;13.300;2024-03-08T12:13:29;11.07;;;7.20;;
49946;SDS011;35839;48.662;13.300;2024-03-08T12:16:00;10.33;;;7.00;;
49946;SDS011;35839;48.662;13.300;2024-03-08T12:18:32;7.53;;;5.93;;
49946;SDS011;35839;48.662;13.300;2024-03-08T12:21:08;13.23;;;6.75;;
49946;SDS011;35839;48.662;13.300;2024-03-08T12:23:35;13.40;;;7.23;;
49946;SDS011;35839;48.662;13.300;2024-03-08T12:28:40;9.75;;;5.60;;
49946;SDS011;35839;48.662;13.300;2024-03-08T12:31:07;7.27;;;5.57;;
49946;SDS011;35839;48.662;13.300;2024-03-08T12:33:37;7.63;;;5.63;;
49946;SDS011;35839;48.662;13.300;2024-03-08T12:36:13;9.30;;;5.73;;
49946;SDS011;35839;48.662;13.300;2024-03-08T12:38:48;6.70;;;5.00;;
49946;SDS011;35839;48.662;13.300;2024-03-08T12:41:18;8.57;;;5.63;;
49946;SDS011;35839;48.662;13.300;2024-03-08T12:43:47;9.33;;;5.93;;
49946;SDS011;35839;48.662;13.300;2024-03-08T12:46:16;7.20;;;5.53;;
49946;SDS011;35839;48.662;13.300;2024-03-08T12:48:42;10.40;;;5.50;;
49946;SDS011;35839;48.662;13.300;2024-03-08T12:51:12;6.82;;;5.03;;
49946;SDS011;35839;48.662;13.300;2024-03-08T12:53:38;8.43;;;5.63;;
49946;SDS011;35839;48.662;13.300;2024-03-08T12:56:05;8.87;;;5.57;;
49946;SDS011;35839;48.662;13.300;2024-03-08T12:58:33;12.80;;;7.03;;
49946;SDS011;35839;48.662;13.300;2024-03-08T13:01:01;8.63;;;5.47;;
49946;SDS011;35839;48.662;13.300;2024-03-08T13:03:29;7.00;;;5.07;;
49946;SDS011;35839;48.662;13.300;2024-03-08T13:05:55;9.60;;;6.00;;
49946;SDS011;35839;48.662;13.300;2024-03-08T13:08:22;7.83;;;5.60;;
49946;SDS011;35839;48.662;13.300;2024-03-08T13:10:49;8.60;;;5.33;;
49946;SDS011;35839;48.662;13.300;2024-03-08T13:13:16;7.03;;;5.17;;
49946;SDS011;35839;48.662;13.300;2024-03-08T13:15:42;8.10;;;5.37;;
49946;SDS011;35839;48.662;13.300;2024-03-08T13:18:08;8.70;;;6.10;;
49946;SDS011;35839;48.662;13.300;2024-03-08T13:20:34;7.13;;;5.23;;
49946;SDS011;35839;48.662;13.300;2024-03-08T13:23:02;7.87;;;5.73;;
49946;SDS011;35839;48.662;13.300;2024-03-08T13:25:29;8.27;;;5.97;;
49946;SDS011;35839;48.662;13.300;2024-03-08T13:27:55;8.03;;;5.47;;
49946;SDS011;35839;48.662;13.300;2024-03-08T13:30:24;10.07;;;6.03;;
49946;SDS011;35839;48.662;13.300;2024-03-08T13:32:51;8.27;;;5.93;;
49946;SDS011;35839;48.662;13.300;2024-03-08T13:35:18;8.17;;;4.73;;
49946;SDS011;35839;48.662;13.300;2024-03-08T13:37:49;9.73;;;4.93;;
49946;SDS011;35839;48.662;13.300;2024-03-08T13:40:16;6.50;;;5.00;;
49946;SDS011;35839;48.662;13.300;2024-03-08T13:42:44;8.93;;;5.47;;
49946;SDS011;35839;48.662;13.300;2024-03-08T13:45:10;8.90;;;5.40;;
49946;SDS011;35839;48.662;13.300;2024-03-08T13:47:36;8.30;;;5.83;;
49946;SDS011;35839;48.662;13.300;2024-03-08T13:50:02;9.03;;;5.63;;
49946;SDS011;35839;48.662;13.300;2024-03-08T13:52:29;9.53;;;5.47;;
49946;SDS011;35839;48.662;13.300;2024-03-08T13:54:54;8.77;;;5.60;;
49946;SDS011;35839;48.662;13.300;2024-03-08T13:57:20;8.63;;;5.83;;
49946;SDS011;35839;48.662;13.300;2024-03-08T13:59:47;9.60;;;6.70;;
49946;SDS011;35839;48.662;13.300;2024-03-08T14:02:14;10.53;;;5.83;;
49946;SDS011;35839;48.662;13.300;2024-03-08T14:04:39;12.30;;;6.27;;
49946;SDS011;35839;48.662;13.300;2024-03-08T14:07:06;7.13;;;4.80;;
49946;SDS011;35839;48.662;13.300;2024-03-08T14:09:33;7.53;;;5.13;;
49946;SDS011;35839;48.662;13.300;2024-03-08T14:12:02;7.95;;;5.28;;
49946;SDS011;35839;48.662;13.300;2024-03-08T14:14:32;10.73;;;6.03;;
49946;SDS011;35839;48.662;13.300;2024-03-08T14:17:00;7.97;;;5.57;;
49946;SDS011;35839;48.662;13.300;2024-03-08T14:19:26;7.63;;;5.13;;
49946;SDS011;35839;48.662;13.300;2024-03-08T14:21:59;6.80;;;5.37;;
49946;SDS011;35839;48.662;13.300;2024-03-08T14:24:25;9.67;;;5.20;;
49946;SDS011;35839;48.662;13.300;2024-03-08T14:26:50;7.50;;;5.20;;
49946;SDS011;35839;48.662;13.300;2024-03-08T14:29:16;6.60;;;4.90;;
49946;SDS011;35839;48.662;13.300;2024-03-08T14:31:43;6.87;;;4.67;;
49946;SDS011;35839;48.662;13.300;2024-03-08T14:34:08;8.80;;;5.50;;
49946;SDS011;35839;48.662;13.300;2024-03-08T14:36:34;7.20;;;4.83;;
49946;SDS011;35839;48.662;13.300;2024-03-08T14:38:59;7.33;;;4.87;;
49946;SDS011;35839;48.662;13.300;2024-03-08T14:41:25;7.97;;;4.80;;
49946;SDS011;35839;48.662;13.300;2024-03-08T14:43:51;9.23;;;5.20;;
49946;SDS011;35839;48.662;13.300;2024-03-08T14:46:22;8.57;;;5.23;;
49946;SDS011;35839;48.662;13.300;2024-03-08T14:48:50;8.53;;;5.53;;
49946;SDS011;35839;48.662;13.300;2024-03-08T14:51:19;5.63;;;4.50;;
49946;SDS011;35839;48.662;13.300;2024-03-08T14:53:46;7.80;;;4.93;;
49946;SDS011;35839;48.662;13.300;2024-03-08T14:56:12;6.97;;;4.47;;
49946;SDS011;35839;48.662;13.300;2024-03-08T14:58:41;6.30;;;4.07;;
49946;SDS011;35839;48.662;13.300;2024-03-08T15:01:14;7.47;;;5.20;;
49946;SDS011;35839;48.662;13.300;2024-03-08T15:03:40;7.87;;;4.97;;
49946;SDS011;35839;48.662;13.300;2024-03-08T15:06:08;9.73;;;4.90;;
49946;SDS011;35839;48.662;13.300;2024-03-08T15:08:35;9.73;;;5.57;;
49946;SDS011;35839;48.662;13.300;2024-03-08T15:11:01;7.47;;;4.63;;
49946;SDS011;35839;48.662;13.300;2024-03-08T15:13:27;6.50;;;4.70;;
49946;SDS011;35839;48.662;13.300;2024-03-08T15:15:58;7.83;;;5.00;;
49946;SDS011;35839;48.662;13.300;2024-03-08T15:18:24;7.10;;;4.90;;
49946;SDS011;35839;48.662;13.300;2024-03-08T15:20:59;6.63;;;5.07;;
49946;SDS011;35839;48.662;13.300;2024-03-08T15:23:25;7.43;;;5.07;;
49946;SDS011;35839;48.662;13.300;2024-03-08T15:25:50;6.93;;;5.00;;
49946;SDS011;35839;48.662;13.300;2024-03-08T15:28:16;7.10;;;5.20;;
49946;SDS011;35839;48.662;13.300;2024-03-08T15:30:45;7.43;;;4.85;;
49946;SDS011;35839;48.662;13.300;2024-03-08T15:33:16;7.13;;;4.93;;
49946;SDS011;35839;48.662;13.300;2024-03-08T15:35:49;11.23;;;4.93;;
49946;SDS011;35839;48.662;13.300;2024-03-08T15:38:22;7.00;;;5.00;;
49946;SDS011;35839;48.662;13.300;2024-03-08T15:40:47;9.97;;;7.03;;
49946;SDS011;35839;48.662;13.300;2024-03-08T15:43:16;15.83;;;10.17;;
49946;SDS011;35839;48.662;13.300;2024-03-08T15:45:41;15.17;;;9.63;;
49946;SDS011;35839;48.662;13.300;2024-03-08T15:48:06;14.53;;;10.00;;
49946;SDS011;35839;48.662;13.300;2024-03-08T15:50:33;13.67;;;9.67;;
49946;SDS011;35839;48.662;13.300;2024-03-08T15:53:00;16.73;;;10.37;;
49946;SDS011;35839;48.662;13.300;2024-03-08T15:55:25;16.50;;;11.00;;
49946;SDS011;35839;48.662;13.300;2024-03-08T15:57:52;17.93;;;11.20;;
49946;SDS011;35839;48.662;13.300;2024-03-08T16:00:21;19.08;;;12.10;;
49946;SDS011;35839;48.662;13.300;2024-03-08T16:03:04;16.80;;;11.37;;
49946;SDS011;35839;48.662;13.300;2024-03-08T16:05:36;19.37;;;13.10;;
49946;SDS011;35839;48.662;13.300;2024-03-08T16:08:06;22.00;;;11.83;;
49946;SDS011;35839;48.662;13.300;2024-03-08T16:10:35;20.07;;;12.47;;
49946;SDS011;35839;48.662;13.300;2024-03-08T16:13:01;22.37;;;13.80;;
49946;SDS011;35839;48.662;13.300;2024-03-08T16:15:28;22.07;;;13.90;;
49946;SDS011;35839;48.662;13.300;2024-03-08T16:17:54;21.90;;;13.60;;
49946;SDS011;35839;48.662;13.300;2024-03-08T16:20:19;18.20;;;11.73;;
49946;SDS011;35839;48.662;13.300;2024-03-08T16:22:46;21.10;;;12.20;;
49946;SDS011;35839;48.662;13.300;2024-03-08T16:25:12;21.70;;;13.40;;
49946;SDS011;35839;48.662;13.300;2024-03-08T16:27:41;20.50;;;13.20;;
49946;SDS011;35839;48.662;13.300;2024-03-08T16:30:07;25.37;;;11.87;;
49946;SDS011;35839;48.662;13.300;2024-03-08T16:32:52;23.60;;;14.57;;
49946;SDS011;35839;48.662;13.300;2024-03-08T16:35:18;23.97;;;14.77;;
49946;SDS011;35839;48.662;13.300;2024-03-08T16:37:43;24.13;;;14.23;;
49946;SDS011;35839;48.662;13.300;2024-03-08T16:40:09;21.10;;;13.67;;
49946;SDS011;35839;48.662;13.300;2024-03-08T16:42:48;21.70;;;14.87;;
49946;SDS011;35839;48.662;13.300;2024-03-08T16:45:17;24.73;;;14.13;;
49946;SDS011;35839;48.662;13.300;2024-03-08T16:47:43;21.40;;;14.20;;
49946;SDS011;35839;48.662;13.300;2024-03-08T16:50:09;20.90;;;13.20;;
49946;SDS011;35839;48.662;13.300;2024-03-08T16:52:38;21.45;;;13.18;;
49946;SDS011;35839;48.662;13.300;2024-03-08T16:55:04;21.80;;;13.57;;
49946;SDS011;35839;48.662;13.300;2024-03-08T16:57:34;19.93;;;12.40;;
49946;SDS011;35839;48.662;13.300;2024-03-08T16:59:59;21.10;;;13.82;;
49946;SDS011;35839;48.662;13.300;2024-03-08T17:02:25;25.20;;;14.70;;
49946;SDS011;35839;48.662;13.300;2024-03-08T17:04:50;24.23;;;14.70;;
49946;SDS011;35839;48.662;13.300;2024-03-08T17:07:16;25.13;;;13.87;;
49946;SDS011;35839;48.662;13.300;2024-03-08T17:09:41;20.77;;;13.67;;
49946;SDS011;35839;48.662;13.300;2024-03-08T17:12:07;27.73;;;13.93;;
49946;SDS011;35839;48.662;13.300;2024-03-08T17:14:36;23.37;;;14.73;;
49946;SDS011;35839;48.662;13.300;2024-03-08T17:17:05;30.20;;;15.45;;
49946;SDS011;35839;48.662;13.300;2024-03-08T17:19:33;24.20;;;15.50;;
49946;SDS011;35839;48.662;13.300;2024-03-08T17:22:02;25.27;;;16.20;;
49946;SDS011;35839;48.662;13.300;2024-03-08T17:24:28;20.20;;;14.37;;
49946;SDS011;35839;48.662;13.300;2024-03-08T17:26:54;22.07;;;13.90;;
49946;SDS011;35839;48.662;13.300;2024-03-08T17:29:20;24.20;;;15.00;;
49946;SDS011;35839;48.662;13.300;2024-03-08T17:31:46;25.73;;;15.53;;
49946;SDS011;35839;48.662;13.300;2024-03-08T17:34:12;23.63;;;14.40;;
49946;SDS011;35839;48.662;13.300;2024-03-08T17:36:44;25.23;;;15.77;;
49946;SDS011;35839;48.662;13.300;2024-03-08T17:39:11;22.50;;;14.03;;
49946;SDS011;35839;48.662;13.300;2024-03-08T17:41:46;22.20;;;14.20;;
49946;SDS011;35839;48.662;13.300;2024-03-08T17:44:18;28.97;;;16.40;;
49946;SDS011;35839;48.662;13.300;2024-03-08T17:46:47;26.48;;;15.00;;
49946;SDS011;35839;48.662;13.300;2024-03-08T17:49:12;27.70;;;15.80;;
49946;SDS011;35839;48.662;13.300;2024-03-08T17:51:39;25.17;;;14.80;;
49946;SDS011;35839;48.662;13.300;2024-03-08T17:54:06;27.57;;;15.50;;
49946;SDS011;35839;48.662;13.300;2024-03-08T17:56:36;24.70;;;14.63;;
49946;SDS011;35839;48.662;13.300;2024-03-08T17:59:02;23.97;;;15.20;;
49946;SDS011;35839;48.662;13.300;2024-03-08T18:01:28;28.90;;;16.57;;
49946;SDS011;35839;48.662;13.300;2024-03-08T18:03:54;29.37;;;14.57;;
49946;SDS011;35839;48.662;13.300;2024-03-08T18:06:20;25.10;;;15.23;;
49946;SDS011;35839;48.662;13.300;2024-03-08T18:08:49;27.30;;;16.93;;
49946;SDS011;35839;48.662;13.300;2024-03-08T18:11:14;26.60;;;14.97;;
49946;SDS011;35839;48.662;13.300;2024-03-08T18:13:40;27.77;;;15.73;;
49946;SDS011;35839;48.662;13.300;2024-03-08T18:16:05;26.00;;;14.90;;
49946;SDS011;35839;48.662;13.300;2024-03-08T18:18:32;22.87;;;13.97;;
49946;SDS011;35839;48.662;13.300;2024-03-08T18:20:57;29.23;;;14.93;;
49946;SDS011;35839;48.662;13.300;2024-03-08T18:23:23;25.67;;;15.13;;
49946;SDS011;35839;48.662;13.300;2024-03-08T18:25:52;23.83;;;13.07;;
49946;SDS011;35839;48.662;13.300;2024-03-08T18:28:17;26.00;;;16.00;;
49946;SDS011;35839;48.662;13.300;2024-03-08T18:30:42;24.00;;;15.23;;
49946;SDS011;35839;48.662;13.300;2024-03-08T18:33:13;22.77;;;14.40;;
49946;SDS011;35839;48.662;13.300;2024-03-08T18:35:39;24.97;;;14.03;;
49946;SDS011;35839;48.662;13.300;2024-03-08T18:38:06;23.13;;;14.20;;
49946;SDS011;35839;48.662;13.300;2024-03-08T18:40:32;23.67;;;13.77;;
49946;SDS011;35839;48.662;13.300;2024-03-08T18:42:58;24.47;;;14.07;;
49946;SDS011;35839;48.662;13.300;2024-03-08T18:45:23;21.73;;;13.10;;
49946;SDS011;35839;48.662;13.300;2024-03-08T18:47:53;27.63;;;15.73;;
49946;SDS011;35839;48.662;13.300;2024-03-08T18:50:22;23.80;;;14.33;;
49946;SDS011;35839;48.662;13.300;2024-03-08T18:52:53;24.97;;;12.10;;
49946;SDS011;35839;48.662;13.300;2024-03-08T18:55:21;21.70;;;12.83;;
49946;SDS011;35839;48.662;13.300;2024-03-08T18:57:49;26.07;;;13.67;;
49946;SDS011;35839;48.662;13.300;2024-03-08T19:00:17;22.40;;;13.43;;
49946;SDS011;35839;48.662;13.300;2024-03-08T19:02:51;23.30;;;12.07;;
49946;SDS011;35839;48.662;13.300;2024-03-08T19:05:20;21.40;;;12.00;;
49946;SDS011;35839;48.662;13.300;2024-03-08T19:07:48;25.50;;;12.40;;
49946;SDS011;35839;48.662;13.300;2024-03-08T19:10:15;22.25;;;12.85;;
49946;SDS011;35839;48.662;13.300;2024-03-08T19:12:47;19.30;;;12.17;;
49946;SDS011;35839;48.662;13.300;2024-03-08T19:15:14;18.33;;;11.50;;
49946;SDS011;35839;48.662;13.300;2024-03-08T19:17:41;21.17;;;12.23;;
49946;SDS011;35839;48.662;13.300;2024-03-08T19:20:07;19.73;;;12.17;;
49946;SDS011;35839;48.662;13.300;2024-03-08T19:22:38;20.97;;;12.13;;
49946;SDS011;35839;48.662;13.300;2024-03-08T19:25:04;20.37;;;13.23;;
49946;SDS011;35839;48.662;13.300;2024-03-08T19:27:32;22.23;;;11.97;;
49946;SDS011;35839;48.662;13.300;2024-03-08T19:29:58;17.97;;;12.13;;
49946;SDS011;35839;48.662;13.300;2024-03-08T19:32:24;23.03;;;12.60;;
49946;SDS011;35839;48.662;13.300;2024-03-08T19:34:51;20.07;;;11.30;;